ExpreSS Skopelitis — SW3130 — position and weather

sailwx.info

Track history (hours):
 
Tides and Currents Weather Stations Pressure Air Temp Water Temp Dewpoint Dewpoint Depression Visibility Wind Speed Wind Dir Waves Ship Positions

ExpreSS Skopelitis

Last reported at 2017-Apr-29 11:45 UTC. Time now 2017-Apr-30 16:57 UTC.
Position N 36°59' E 025°22'.

Length 45 m; draft 2.4 m.

Type: Passenger vessel. MMSI: 237029400.

Date/timePositionNaut miles runAvg speedWind from/ knotsBaromVisibWave heightAir tempDewpointWater temp
2017-Apr-29 11:45N 36°59' E 025°22'312.1
2017-Apr-29 11:31N 37°02' E 025°21'4 9.0
2017-Apr-29 11:01N 37°06' E 025°22'0 0.0
2017-Apr-29 10:30N 37°06' E 025°22'0 0.0
2017-Apr-29 10:00N 37°06' E 025°22'0 0.0
2017-Apr-29 09:30N 37°06' E 025°22'2 3.2
2017-Apr-29 09:00N 37°06' E 025°21'611.5
2017-Apr-29 08:30N 37°00' E 025°22'1 0.0
2017-Apr-28 11:52N 36°59' E 025°22'412.1
2017-Apr-28 11:30N 37°03' E 025°20'3 7.0
2017-Apr-28 11:00N 37°06' E 025°22'0 0.0
2017-Apr-28 10:30N 37°06' E 025°22'0 0.0
2017-Apr-28 10:00N 37°06' E 025°22'0 0.0
2017-Apr-28 09:30N 37°06' E 025°22'0 0.0
2017-Apr-28 09:01N 37°06' E 025°22'0 0.0
2017-Apr-28 08:30N 37°06' E 025°22'0 0.0
2017-Apr-28 08:00N 37°06' E 025°22'3 6.9
2017-Apr-28 07:31N 37°03' E 025°20'4 0.2
2017-Apr-27 11:46N 36°59' E 025°22'312.2
2017-Apr-27 11:30N 37°02' E 025°21'4 8.6
2017-Apr-27 11:00N 37°06' E 025°22'0 0.0
2017-Apr-27 10:30N 37°06' E 025°22'0 0.0
2017-Apr-27 10:00N 37°06' E 025°22'0 0.0
2017-Apr-27 09:30N 37°06' E 025°22'0 0.0
2017-Apr-27 09:00N 37°06' E 025°22'0 0.0
2017-Apr-27 08:31N 37°06' E 025°22'0 0.0
2017-Apr-27 08:01N 37°06' E 025°22'2 4.8
2017-Apr-27 07:30N 37°05' E 025°20'6 0.3
2017-Apr-26 11:45N 36°59' E 025°22'312.3
2017-Apr-26 11:30N 37°02' E 025°21'5 9.1
2017-Apr-26 11:00N 37°06' E 025°22'0 0.0
2017-Apr-26 10:30N 37°06' E 025°22'0 0.0
2017-Apr-26 10:00N 37°06' E 025°22'0 0.0
2017-Apr-26 09:30N 37°06' E 025°22'0 0.0
2017-Apr-26 09:00N 37°06' E 025°22'4 7.3
2017-Apr-26 08:30N 37°03' E 025°21'4 0.2
2017-Apr-25 11:48N 36°59' E 025°22'412.1
2017-Apr-25 11:30N 37°02' E 025°21'4 8.2
2017-Apr-25 11:00N 37°06' E 025°22'0 0.0
2017-Apr-25 10:30N 37°06' E 025°22'0 0.0
2017-Apr-25 10:00N 37°06' E 025°22'0 0.0
2017-Apr-25 09:30N 37°06' E 025°22'0 0.0
2017-Apr-25 09:01N 37°06' E 025°22'0 0.0
2017-Apr-25 08:30N 37°06' E 025°22'0 0.0
2017-Apr-25 08:00N 37°06' E 025°22'3 5.2
2017-Apr-25 07:30N 37°05' E 025°20'6 0.3
2017-Apr-24 11:45N 36°59' E 025°22'312.3
2017-Apr-24 11:30N 37°02' E 025°21'5 9.0
2017-Apr-24 11:00N 37°06' E 025°22'0 0.0
2017-Apr-24 10:30N 37°06' E 025°22'0 0.0
2017-Apr-24 10:00N 37°06' E 025°22'0 0.0
2017-Apr-24 09:30N 37°06' E 025°22'0 0.0
2017-Apr-24 09:00N 37°06' E 025°22'4 7.0
2017-Apr-24 08:30N 37°03' E 025°20'4 0.1
2017-Apr-22 11:46N 36°59' E 025°22'312.4
2017-Apr-22 11:30N 37°02' E 025°21'4 8.7
2017-Apr-22 11:00N 37°06' E 025°22'0 0.0
2017-Apr-22 10:30N 37°06' E 025°22'0 0.0
2017-Apr-22 10:00N 37°06' E 025°22'0 0.0
2017-Apr-22 09:30N 37°06' E 025°22'1 2.1
2017-Apr-22 09:00N 37°06' E 025°21'510.3
2017-Apr-22 08:30N 37°01' E 025°22'1 0.1
2017-Apr-21 11:45N 36°59' E 025°22'312.6
2017-Apr-21 11:30N 37°02' E 025°21'4 8.8
2017-Apr-21 11:00N 37°06' E 025°22'0 0.0
2017-Apr-21 10:30N 37°06' E 025°22'0 0.0
2017-Apr-21 10:00N 37°06' E 025°22'0 0.0
2017-Apr-21 09:30N 37°06' E 025°22'0 0.0
2017-Apr-21 09:00N 37°06' E 025°22'0 0.0
2017-Apr-21 08:30N 37°06' E 025°22'0 0.0
2017-Apr-21 08:00N 37°06' E 025°22'3 5.1
2017-Apr-21 07:30N 37°05' E 025°20'6 0.3
2017-Apr-20 11:47N 36°59' E 025°22'311.8
2017-Apr-20 11:30N 37°02' E 025°21'4 8.5
2017-Apr-20 11:00N 37°06' E 025°22'0 0.0
2017-Apr-20 10:30N 37°06' E 025°22'0 0.0
2017-Apr-20 10:00N 37°06' E 025°22'0 0.0
2017-Apr-20 09:30N 37°06' E 025°22'0 0.0
2017-Apr-20 09:00N 37°06' E 025°22'0 0.0
2017-Apr-20 08:30N 37°06' E 025°22'0 0.0
2017-Apr-20 08:00N 37°06' E 025°22'2 4.8
2017-Apr-20 07:30N 37°05' E 025°20'6 0.3
2017-Apr-19 11:47N 36°59' E 025°22'  
Track history (hours):
 
Tides and Currents Weather Stations Pressure Air Temp Water Temp Dewpoint Dewpoint Depression Visibility Wind Speed Wind Dir Waves Ship Positions

ExpreSS Skopelitis

Last reported at 2017-Apr-29 11:45 UTC. Time now 2017-Apr-30 16:57 UTC.
Position N 36°59' E 025°22'.

Length 45 m; draft 2.4 m.

Type: Passenger vessel. MMSI: 237029400.

Date/timePositionNaut miles runAvg speedWind from/ knotsBaromVisibWave heightAir tempDewpointWater temp
2017-Apr-29 11:45N 36°59' E 025°22'312.1
2017-Apr-29 11:31N 37°02' E 025°21'4 9.0
2017-Apr-29 11:01N 37°06' E 025°22'0 0.0
2017-Apr-29 10:30N 37°06' E 025°22'0 0.0
2017-Apr-29 10:00N 37°06' E 025°22'0 0.0
2017-Apr-29 09:30N 37°06' E 025°22'2 3.2
2017-Apr-29 09:00N 37°06' E 025°21'611.5
2017-Apr-29 08:30N 37°00' E 025°22'1 0.0
2017-Apr-28 11:52N 36°59' E 025°22'412.1
2017-Apr-28 11:30N 37°03' E 025°20'3 7.0
2017-Apr-28 11:00N 37°06' E 025°22'0 0.0
2017-Apr-28 10:30N 37°06' E 025°22'0 0.0
2017-Apr-28 10:00N 37°06' E 025°22'0 0.0
2017-Apr-28 09:30N 37°06' E 025°22'0 0.0
2017-Apr-28 09:01N 37°06' E 025°22'0 0.0
2017-Apr-28 08:30N 37°06' E 025°22'0 0.0
2017-Apr-28 08:00N 37°06' E 025°22'3 6.9
2017-Apr-28 07:31N 37°03' E 025°20'4 0.2
2017-Apr-27 11:46N 36°59' E 025°22'312.2
2017-Apr-27 11:30N 37°02' E 025°21'4 8.6
2017-Apr-27 11:00N 37°06' E 025°22'0 0.0
2017-Apr-27 10:30N 37°06' E 025°22'0 0.0
2017-Apr-27 10:00N 37°06' E 025°22'0 0.0
2017-Apr-27 09:30N 37°06' E 025°22'0 0.0
2017-Apr-27 09:00N 37°06' E 025°22'0 0.0
2017-Apr-27 08:31N 37°06' E 025°22'0 0.0
2017-Apr-27 08:01N 37°06' E 025°22'2 4.8
2017-Apr-27 07:30N 37°05' E 025°20'6 0.3
2017-Apr-26 11:45N 36°59' E 025°22'312.3
2017-Apr-26 11:30N 37°02' E 025°21'5 9.1
2017-Apr-26 11:00N 37°06' E 025°22'0 0.0
2017-Apr-26 10:30N 37°06' E 025°22'0 0.0
2017-Apr-26 10:00N 37°06' E 025°22'0 0.0
2017-Apr-26 09:30N 37°06' E 025°22'0 0.0
2017-Apr-26 09:00N 37°06' E 025°22'4 7.3
2017-Apr-26 08:30N 37°03' E 025°21'4 0.2
2017-Apr-25 11:48N 36°59' E 025°22'412.1
2017-Apr-25 11:30N 37°02' E 025°21'4 8.2
2017-Apr-25 11:00N 37°06' E 025°22'0 0.0
2017-Apr-25 10:30N 37°06' E 025°22'0 0.0
2017-Apr-25 10:00N 37°06' E 025°22'0 0.0
2017-Apr-25 09:30N 37°06' E 025°22'0 0.0
2017-Apr-25 09:01N 37°06' E 025°22'0 0.0
2017-Apr-25 08:30N 37°06' E 025°22'0 0.0
2017-Apr-25 08:00N 37°06' E 025°22'3 5.2
2017-Apr-25 07:30N 37°05' E 025°20'6 0.3
2017-Apr-24 11:45N 36°59' E 025°22'312.3
2017-Apr-24 11:30N 37°02' E 025°21'5 9.0
2017-Apr-24 11:00N 37°06' E 025°22'0 0.0
2017-Apr-24 10:30N 37°06' E 025°22'0 0.0
2017-Apr-24 10:00N 37°06' E 025°22'0 0.0
2017-Apr-24 09:30N 37°06' E 025°22'0 0.0
2017-Apr-24 09:00N 37°06' E 025°22'4 7.0
2017-Apr-24 08:30N 37°03' E 025°20'4 0.1
2017-Apr-22 11:46N 36°59' E 025°22'312.4
2017-Apr-22 11:30N 37°02' E 025°21'4 8.7
2017-Apr-22 11:00N 37°06' E 025°22'0 0.0
2017-Apr-22 10:30N 37°06' E 025°22'0 0.0
2017-Apr-22 10:00N 37°06' E 025°22'0 0.0
2017-Apr-22 09:30N 37°06' E 025°22'1 2.1
2017-Apr-22 09:00N 37°06' E 025°21'510.3
2017-Apr-22 08:30N 37°01' E 025°22'1 0.1
2017-Apr-21 11:45N 36°59' E 025°22'312.6
2017-Apr-21 11:30N 37°02' E 025°21'4 8.8
2017-Apr-21 11:00N 37°06' E 025°22'0 0.0
2017-Apr-21 10:30N 37°06' E 025°22'0 0.0
2017-Apr-21 10:00N 37°06' E 025°22'0 0.0
2017-Apr-21 09:30N 37°06' E 025°22'0 0.0
2017-Apr-21 09:00N 37°06' E 025°22'0 0.0
2017-Apr-21 08:30N 37°06' E 025°22'0 0.0
2017-Apr-21 08:00N 37°06' E 025°22'3 5.1
2017-Apr-21 07:30N 37°05' E 025°20'6 0.3
2017-Apr-20 11:47N 36°59' E 025°22'311.8
2017-Apr-20 11:30N 37°02' E 025°21'4 8.5
2017-Apr-20 11:00N 37°06' E 025°22'0 0.0
2017-Apr-20 10:30N 37°06' E 025°22'0 0.0
2017-Apr-20 10:00N 37°06' E 025°22'0 0.0
2017-Apr-20 09:30N 37°06' E 025°22'0 0.0
2017-Apr-20 09:00N 37°06' E 025°22'0 0.0
2017-Apr-20 08:30N 37°06' E 025°22'0 0.0
2017-Apr-20 08:00N 37°06' E 025°22'2 4.8
2017-Apr-20 07:30N 37°05' E 025°20'6 0.3
2017-Apr-19 11:47N 36°59' E 025°22'  

Dump ship's entire track history